sensor_id;sensor_type;location;lat;lon;timestamp;P1;durP1;ratioP1;P2;durP2;ratioP2
67193;SDS011;54121;53.508;49.422;2022-08-25T00:00:40;54.40;;;18.77;;
67193;SDS011;54121;53.508;49.422;2022-08-25T00:03:12;67.18;;;19.60;;
67193;SDS011;54121;53.508;49.422;2022-08-25T00:05:44;65.97;;;19.13;;
67193;SDS011;54121;53.508;49.422;2022-08-25T00:08:16;53.58;;;16.73;;
67193;SDS011;54121;53.508;49.422;2022-08-25T00:10:47;41.45;;;13.30;;
67193;SDS011;54121;53.508;49.422;2022-08-25T00:13:19;37.85;;;13.10;;
67193;SDS011;54121;53.508;49.422;2022-08-25T00:15:51;33.50;;;12.35;;
67193;SDS011;54121;53.508;49.422;2022-08-25T00:18:23;32.30;;;11.90;;
67193;SDS011;54121;53.508;49.422;2022-08-25T00:20:56;32.13;;;11.48;;
67193;SDS011;54121;53.508;49.422;2022-08-25T00:23:28;30.88;;;11.52;;
67193;SDS011;54121;53.508;49.422;2022-08-25T00:26:00;30.73;;;10.85;;
67193;SDS011;54121;53.508;49.422;2022-08-25T00:28:32;24.67;;;10.80;;
67193;SDS011;54121;53.508;49.422;2022-08-25T00:31:04;24.02;;;10.00;;
67193;SDS011;54121;53.508;49.422;2022-08-25T00:33:41;27.35;;;10.18;;
67193;SDS011;54121;53.508;49.422;2022-08-25T00:36:14;25.92;;;9.85;;
67193;SDS011;54121;53.508;49.422;2022-08-25T00:38:47;24.05;;;9.95;;
67193;SDS011;54121;53.508;49.422;2022-08-25T00:41:21;24.27;;;8.82;;
67193;SDS011;54121;53.508;49.422;2022-08-25T00:43:58;27.63;;;9.82;;
67193;SDS011;54121;53.508;49.422;2022-08-25T00:46:40;23.92;;;10.38;;
67193;SDS011;54121;53.508;49.422;2022-08-25T00:54:53;23.20;;;10.05;;
67193;SDS011;54121;53.508;49.422;2022-08-25T00:57:29;28.60;;;10.60;;
67193;SDS011;54121;53.508;49.422;2022-08-25T01:00:08;32.17;;;10.82;;
67193;SDS011;54121;53.508;49.422;2022-08-25T01:02:43;28.63;;;10.10;;
67193;SDS011;54121;53.508;49.422;2022-08-25T01:05:16;23.88;;;10.43;;
67193;SDS011;54121;53.508;49.422;2022-08-25T01:07:49;26.30;;;10.50;;
67193;SDS011;54121;53.508;49.422;2022-08-25T01:10:22;28.70;;;11.43;;
67193;SDS011;54121;53.508;49.422;2022-08-25T01:12:57;31.63;;;10.63;;
67193;SDS011;54121;53.508;49.422;2022-08-25T01:15:32;30.63;;;10.35;;
67193;SDS011;54121;53.508;49.422;2022-08-25T01:18:04;24.70;;;9.85;;
67193;SDS011;54121;53.508;49.422;2022-08-25T01:20:36;28.67;;;9.90;;
67193;SDS011;54121;53.508;49.422;2022-08-25T01:23:08;33.80;;;10.77;;
67193;SDS011;54121;53.508;49.422;2022-08-25T01:28:51;31.80;;;11.60;;
67193;SDS011;54121;53.508;49.422;2022-08-25T01:31:42;29.40;;;11.85;;
67193;SDS011;54121;53.508;49.422;2022-08-25T01:34:15;27.63;;;12.20;;
67193;SDS011;54121;53.508;49.422;2022-08-25T01:36:48;32.33;;;11.85;;
67193;SDS011;54121;53.508;49.422;2022-08-25T01:39:19;29.73;;;11.65;;
67193;SDS011;54121;53.508;49.422;2022-08-25T01:44:35;25.92;;;11.63;;
67193;SDS011;54121;53.508;49.422;2022-08-25T01:47:08;29.83;;;11.80;;
67193;SDS011;54121;53.508;49.422;2022-08-25T01:49:40;33.40;;;11.80;;
67193;SDS011;54121;53.508;49.422;2022-08-25T01:52:18;43.28;;;13.98;;
67193;SDS011;54121;53.508;49.422;2022-08-25T01:54:56;47.53;;;14.15;;
67193;SDS011;54121;53.508;49.422;2022-08-25T01:57:28;37.35;;;13.40;;
67193;SDS011;54121;53.508;49.422;2022-08-25T02:00:03;42.63;;;13.18;;
67193;SDS011;54121;53.508;49.422;2022-08-25T02:02:37;26.75;;;12.48;;
67193;SDS011;54121;53.508;49.422;2022-08-25T02:05:10;42.20;;;13.10;;
67193;SDS011;54121;53.508;49.422;2022-08-25T02:07:43;30.00;;;12.27;;
67193;SDS011;54121;53.508;49.422;2022-08-25T02:10:15;32.08;;;12.80;;
67193;SDS011;54121;53.508;49.422;2022-08-25T02:12:47;32.42;;;13.38;;
67193;SDS011;54121;53.508;49.422;2022-08-25T02:15:21;37.33;;;12.35;;
67193;SDS011;54121;53.508;49.422;2022-08-25T02:17:53;38.30;;;12.73;;
67193;SDS011;54121;53.508;49.422;2022-08-25T02:20:25;44.47;;;13.77;;
67193;SDS011;54121;53.508;49.422;2022-08-25T02:22:57;44.20;;;13.00;;
67193;SDS011;54121;53.508;49.422;2022-08-25T02:25:29;38.55;;;13.65;;
67193;SDS011;54121;53.508;49.422;2022-08-25T02:28:01;34.47;;;13.23;;
67193;SDS011;54121;53.508;49.422;2022-08-25T02:30:35;37.80;;;13.40;;
67193;SDS011;54121;53.508;49.422;2022-08-25T02:33:08;28.30;;;13.25;;
67193;SDS011;54121;53.508;49.422;2022-08-25T02:35:40;32.00;;;12.45;;
67193;SDS011;54121;53.508;49.422;2022-08-25T02:38:12;35.65;;;13.02;;
67193;SDS011;54121;53.508;49.422;2022-08-25T02:40:43;30.05;;;12.55;;
67193;SDS011;54121;53.508;49.422;2022-08-25T02:43:15;39.22;;;14.13;;
67193;SDS011;54121;53.508;49.422;2022-08-25T02:45:47;35.58;;;13.10;;
67193;SDS011;54121;53.508;49.422;2022-08-25T02:48:21;37.42;;;13.00;;
67193;SDS011;54121;53.508;49.422;2022-08-25T02:50:53;30.90;;;12.50;;
67193;SDS011;54121;53.508;49.422;2022-08-25T02:53:25;50.28;;;12.63;;
67193;SDS011;54121;53.508;49.422;2022-08-25T02:55:58;33.00;;;13.07;;
67193;SDS011;54121;53.508;49.422;2022-08-25T02:58:30;28.05;;;11.80;;
67193;SDS011;54121;53.508;49.422;2022-08-25T03:01:03;46.30;;;12.88;;
67193;SDS011;54121;53.508;49.422;2022-08-25T03:03:37;32.03;;;12.10;;
67193;SDS011;54121;53.508;49.422;2022-08-25T03:06:14;39.22;;;13.13;;
67193;SDS011;54121;53.508;49.422;2022-08-25T03:08:48;33.70;;;12.32;;
67193;SDS011;54121;53.508;49.422;2022-08-25T03:11:20;44.10;;;12.93;;
67193;SDS011;54121;53.508;49.422;2022-08-25T03:13:52;38.08;;;12.68;;
67193;SDS011;54121;53.508;49.422;2022-08-25T03:16:25;46.25;;;12.98;;
67193;SDS011;54121;53.508;49.422;2022-08-25T03:18:57;39.30;;;13.40;;
67193;SDS011;54121;53.508;49.422;2022-08-25T03:21:29;48.55;;;13.55;;
67193;SDS011;54121;53.508;49.422;2022-08-25T03:24:02;41.03;;;12.52;;
67193;SDS011;54121;53.508;49.422;2022-08-25T03:26:35;42.95;;;14.68;;
67193;SDS011;54121;53.508;49.422;2022-08-25T03:29:27;51.40;;;14.15;;
67193;SDS011;54121;53.508;49.422;2022-08-25T03:32:01;34.35;;;13.63;;
67193;SDS011;54121;53.508;49.422;2022-08-25T03:34:33;40.25;;;13.57;;
67193;SDS011;54121;53.508;49.422;2022-08-25T03:37:05;50.00;;;14.80;;
67193;SDS011;54121;53.508;49.422;2022-08-25T03:39:38;43.50;;;13.60;;
67193;SDS011;54121;53.508;49.422;2022-08-25T03:42:09;45.83;;;13.18;;
67193;SDS011;54121;53.508;49.422;2022-08-25T03:44:42;40.75;;;14.02;;
67193;SDS011;54121;53.508;49.422;2022-08-25T03:47:15;39.10;;;13.35;;
67193;SDS011;54121;53.508;49.422;2022-08-25T03:49:46;37.60;;;12.07;;
67193;SDS011;54121;53.508;49.422;2022-08-25T03:52:18;47.50;;;13.23;;
67193;SDS011;54121;53.508;49.422;2022-08-25T03:54:50;41.08;;;12.32;;
67193;SDS011;54121;53.508;49.422;2022-08-25T03:57:22;33.65;;;13.02;;
67193;SDS011;54121;53.508;49.422;2022-08-25T03:59:54;33.35;;;10.88;;
67193;SDS011;54121;53.508;49.422;2022-08-25T04:02:26;29.33;;;12.27;;
67193;SDS011;54121;53.508;49.422;2022-08-25T04:04:58;31.98;;;11.70;;
67193;SDS011;54121;53.508;49.422;2022-08-25T04:07:30;40.72;;;12.65;;
67193;SDS011;54121;53.508;49.422;2022-08-25T04:10:03;45.83;;;12.40;;
67193;SDS011;54121;53.508;49.422;2022-08-25T04:12:36;43.17;;;12.50;;
67193;SDS011;54121;53.508;49.422;2022-08-25T04:15:08;147.55;;;26.50;;
67193;SDS011;54121;53.508;49.422;2022-08-25T04:17:40;140.23;;;25.50;;
67193;SDS011;54121;53.508;49.422;2022-08-25T04:20:12;51.85;;;15.73;;
67193;SDS011;54121;53.508;49.422;2022-08-25T04:22:44;53.22;;;16.48;;
67193;SDS011;54121;53.508;49.422;2022-08-25T04:25:16;67.65;;;17.23;;
67193;SDS011;54121;53.508;49.422;2022-08-25T04:27:48;49.58;;;17.77;;
67193;SDS011;54121;53.508;49.422;2022-08-25T04:30:20;229.00;;;44.53;;
67193;SDS011;54121;53.508;49.422;2022-08-25T04:32:52;322.92;;;64.45;;
67193;SDS011;54121;53.508;49.422;2022-08-25T04:35:24;305.02;;;63.15;;
67193;SDS011;54121;53.508;49.422;2022-08-25T04:37:56;149.35;;;32.25;;
67193;SDS011;54121;53.508;49.422;2022-08-25T04:40:27;144.18;;;32.63;;
67193;SDS011;54121;53.508;49.422;2022-08-25T04:42:59;270.48;;;64.28;;
67193;SDS011;54121;53.508;49.422;2022-08-25T04:45:31;264.05;;;55.40;;
67193;SDS011;54121;53.508;49.422;2022-08-25T04:48:07;90.45;;;22.38;;
67193;SDS011;54121;53.508;49.422;2022-08-25T04:50:39;221.82;;;55.58;;
67193;SDS011;54121;53.508;49.422;2022-08-25T04:53:11;107.95;;;27.60;;
67193;SDS011;54121;53.508;49.422;2022-08-25T04:55:44;148.15;;;37.13;;
67193;SDS011;54121;53.508;49.422;2022-08-25T04:58:18;42.92;;;17.67;;
67193;SDS011;54121;53.508;49.422;2022-08-25T05:00:49;32.60;;;14.23;;
67193;SDS011;54121;53.508;49.422;2022-08-25T05:03:21;30.02;;;11.65;;
67193;SDS011;54121;53.508;49.422;2022-08-25T05:05:53;28.85;;;11.05;;
67193;SDS011;54121;53.508;49.422;2022-08-25T05:08:24;27.65;;;10.32;;
67193;SDS011;54121;53.508;49.422;2022-08-25T05:10:56;58.17;;;15.43;;
67193;SDS011;54121;53.508;49.422;2022-08-25T05:13:28;37.67;;;14.48;;
67193;SDS011;54121;53.508;49.422;2022-08-25T05:16:00;26.42;;;10.55;;
67193;SDS011;54121;53.508;49.422;2022-08-25T05:18:33;29.25;;;10.38;;
67193;SDS011;54121;53.508;49.422;2022-08-25T05:21:11;45.22;;;10.13;;
67193;SDS011;54121;53.508;49.422;2022-08-25T05:23:45;32.95;;;12.70;;
67193;SDS011;54121;53.508;49.422;2022-08-25T05:26:21;76.65;;;22.88;;
67193;SDS011;54121;53.508;49.422;2022-08-25T05:28:55;124.97;;;27.98;;
67193;SDS011;54121;53.508;49.422;2022-08-25T05:31:28;125.82;;;37.38;;
67193;SDS011;54121;53.508;49.422;2022-08-25T05:34:02;92.72;;;31.92;;
67193;SDS011;54121;53.508;49.422;2022-08-25T05:36:36;116.80;;;28.23;;
67193;SDS011;54121;53.508;49.422;2022-08-25T05:39:12;94.10;;;32.85;;
67193;SDS011;54121;53.508;49.422;2022-08-25T05:41:44;121.80;;;40.75;;
67193;SDS011;54121;53.508;49.422;2022-08-25T05:44:16;96.25;;;32.28;;
67193;SDS011;54121;53.508;49.422;2022-08-25T05:46:48;82.18;;;30.13;;
67193;SDS011;54121;53.508;49.422;2022-08-25T05:49:20;84.65;;;34.20;;
67193;SDS011;54121;53.508;49.422;2022-08-25T05:51:52;37.78;;;15.02;;
67193;SDS011;54121;53.508;49.422;2022-08-25T05:54:24;24.30;;;8.52;;
67193;SDS011;54121;53.508;49.422;2022-08-25T05:56:56;23.80;;;9.40;;
67193;SDS011;54121;53.508;49.422;2022-08-25T05:59:28;17.45;;;10.00;;
67193;SDS011;54121;53.508;49.422;2022-08-25T06:02:00;20.55;;;10.35;;
67193;SDS011;54121;53.508;49.422;2022-08-25T06:04:50;18.15;;;10.63;;
67193;SDS011;54121;53.508;49.422;2022-08-25T06:07:22;28.50;;;11.57;;
67193;SDS011;54121;53.508;49.422;2022-08-25T06:09:54;24.00;;;9.73;;
67193;SDS011;54121;53.508;49.422;2022-08-25T06:12:25;18.88;;;7.88;;
67193;SDS011;54121;53.508;49.422;2022-08-25T06:14:57;22.40;;;8.00;;
67193;SDS011;54121;53.508;49.422;2022-08-25T06:17:29;21.92;;;8.88;;
67193;SDS011;54121;53.508;49.422;2022-08-25T06:20:01;25.83;;;8.20;;
67193;SDS011;54121;53.508;49.422;2022-08-25T06:22:35;19.35;;;8.60;;
67193;SDS011;54121;53.508;49.422;2022-08-25T06:25:07;23.10;;;8.20;;
67193;SDS011;54121;53.508;49.422;2022-08-25T06:27:41;20.17;;;7.38;;
67193;SDS011;54121;53.508;49.422;2022-08-25T06:30:14;19.65;;;9.18;;
67193;SDS011;54121;53.508;49.422;2022-08-25T06:32:48;22.90;;;8.38;;
67193;SDS011;54121;53.508;49.422;2022-08-25T06:35:20;20.50;;;7.47;;
67193;SDS011;54121;53.508;49.422;2022-08-25T06:37:52;24.95;;;7.72;;
67193;SDS011;54121;53.508;49.422;2022-08-25T06:40:24;12.55;;;8.00;;
67193;SDS011;54121;53.508;49.422;2022-08-25T06:42:56;12.27;;;8.48;;
67193;SDS011;54121;53.508;49.422;2022-08-25T06:45:28;12.27;;;7.18;;
67193;SDS011;54121;53.508;49.422;2022-08-25T06:48:00;13.35;;;8.48;;
67193;SDS011;54121;53.508;49.422;2022-08-25T06:50:32;22.88;;;9.68;;
67193;SDS011;54121;53.508;49.422;2022-08-25T06:53:04;13.88;;;8.23;;
67193;SDS011;54121;53.508;49.422;2022-08-25T06:55:36;13.45;;;8.63;;
67193;SDS011;54121;53.508;49.422;2022-08-25T06:58:07;15.52;;;8.15;;
67193;SDS011;54121;53.508;49.422;2022-08-25T07:00:39;15.30;;;9.07;;
67193;SDS011;54121;53.508;49.422;2022-08-25T07:03:11;20.70;;;9.73;;
67193;SDS011;54121;53.508;49.422;2022-08-25T07:05:52;15.05;;;8.52;;
67193;SDS011;54121;53.508;49.422;2022-08-25T07:08:26;17.33;;;7.32;;
67193;SDS011;54121;53.508;49.422;2022-08-25T07:11:02;12.02;;;6.95;;
67193;SDS011;54121;53.508;49.422;2022-08-25T07:13:36;12.00;;;7.03;;
67193;SDS011;54121;53.508;49.422;2022-08-25T07:16:08;13.68;;;7.95;;
67193;SDS011;54121;53.508;49.422;2022-08-25T07:18:41;22.20;;;7.45;;
67193;SDS011;54121;53.508;49.422;2022-08-25T07:21:13;12.13;;;7.35;;
67193;SDS011;54121;53.508;49.422;2022-08-25T07:23:45;12.75;;;7.85;;
67193;SDS011;54121;53.508;49.422;2022-08-25T07:26:23;17.38;;;7.80;;
67193;SDS011;54121;53.508;49.422;2022-08-25T07:28:56;13.80;;;6.68;;
67193;SDS011;54121;53.508;49.422;2022-08-25T07:31:29;10.68;;;6.90;;
67193;SDS011;54121;53.508;49.422;2022-08-25T07:34:01;11.32;;;6.80;;
67193;SDS011;54121;53.508;49.422;2022-08-25T07:36:52;10.88;;;6.78;;
67193;SDS011;54121;53.508;49.422;2022-08-25T07:39:25;12.30;;;6.38;;
67193;SDS011;54121;53.508;49.422;2022-08-25T07:41:57;9.95;;;5.90;;
67193;SDS011;54121;53.508;49.422;2022-08-25T07:44:29;10.15;;;5.88;;
67193;SDS011;54121;53.508;49.422;2022-08-25T07:47:01;9.38;;;5.97;;
67193;SDS011;54121;53.508;49.422;2022-08-25T07:49:33;11.85;;;5.85;;
67193;SDS011;54121;53.508;49.422;2022-08-25T07:52:05;19.52;;;5.43;;
67193;SDS011;54121;53.508;49.422;2022-08-25T07:54:37;11.55;;;5.80;;
67193;SDS011;54121;53.508;49.422;2022-08-25T07:57:08;12.63;;;6.15;;
67193;SDS011;54121;53.508;49.422;2022-08-25T07:59:40;9.77;;;5.25;;
67193;SDS011;54121;53.508;49.422;2022-08-25T08:02:13;8.48;;;5.28;;
67193;SDS011;54121;53.508;49.422;2022-08-25T08:04:48;6.72;;;5.28;;
67193;SDS011;54121;53.508;49.422;2022-08-25T08:07:23;10.02;;;5.28;;
67193;SDS011;54121;53.508;49.422;2022-08-25T08:09:56;16.75;;;4.63;;
67193;SDS011;54121;53.508;49.422;2022-08-25T08:12:28;7.32;;;4.80;;
67193;SDS011;54121;53.508;49.422;2022-08-25T08:15:00;13.27;;;5.53;;
67193;SDS011;54121;53.508;49.422;2022-08-25T08:17:32;9.43;;;4.50;;
67193;SDS011;54121;53.508;49.422;2022-08-25T08:20:05;7.93;;;4.70;;
67193;SDS011;54121;53.508;49.422;2022-08-25T08:22:39;9.75;;;5.15;;
67193;SDS011;54121;53.508;49.422;2022-08-25T08:25:12;10.00;;;4.80;;
67193;SDS011;54121;53.508;49.422;2022-08-25T08:27:44;8.07;;;4.88;;
67193;SDS011;54121;53.508;49.422;2022-08-25T08:30:16;11.18;;;4.78;;
67193;SDS011;54121;53.508;49.422;2022-08-25T08:32:48;6.38;;;4.20;;
67193;SDS011;54121;53.508;49.422;2022-08-25T08:35:20;7.10;;;4.50;;
67193;SDS011;54121;53.508;49.422;2022-08-25T08:37:52;8.18;;;4.63;;
67193;SDS011;54121;53.508;49.422;2022-08-25T08:40:24;8.35;;;4.63;;
67193;SDS011;54121;53.508;49.422;2022-08-25T08:43:05;5.53;;;4.80;;
67193;SDS011;54121;53.508;49.422;2022-08-25T08:45:46;11.82;;;5.07;;
67193;SDS011;54121;53.508;49.422;2022-08-25T08:56:53;8.38;;;5.20;;
67193;SDS011;54121;53.508;49.422;2022-08-25T08:59:47;6.93;;;4.68;;
67193;SDS011;54121;53.508;49.422;2022-08-25T09:02:37;11.20;;;5.63;;
67193;SDS011;54121;53.508;49.422;2022-08-25T09:05:21;7.40;;;5.50;;
67193;SDS011;54121;53.508;49.422;2022-08-25T09:08:05;6.63;;;5.53;;
67193;SDS011;54121;53.508;49.422;2022-08-25T09:10:49;8.18;;;5.85;;
67193;SDS011;54121;53.508;49.422;2022-08-25T09:16:45;7.15;;;5.00;;
67193;SDS011;54121;53.508;49.422;2022-08-25T09:27:58;9.82;;;5.47;;
67193;SDS011;54121;53.508;49.422;2022-08-25T09:30:41;9.52;;;5.25;;
67193;SDS011;54121;53.508;49.422;2022-08-25T09:33:21;16.92;;;5.75;;
67193;SDS011;54121;53.508;49.422;2022-08-25T09:35:54;12.57;;;5.60;;
67193;SDS011;54121;53.508;49.422;2022-08-25T09:38:27;8.13;;;4.88;;
67193;SDS011;54121;53.508;49.422;2022-08-25T09:41:00;7.88;;;5.50;;
67193;SDS011;54121;53.508;49.422;2022-08-25T09:43:37;8.43;;;5.57;;
67193;SDS011;54121;53.508;49.422;2022-08-25T09:49:11;10.97;;;6.10;;
67193;SDS011;54121;53.508;49.422;2022-08-25T09:51:46;12.33;;;5.87;;
67193;SDS011;54121;53.508;49.422;2022-08-25T09:54:19;10.32;;;5.78;;
67193;SDS011;54121;53.508;49.422;2022-08-25T09:56:55;12.13;;;5.70;;
67193;SDS011;54121;53.508;49.422;2022-08-25T09:59:32;9.02;;;5.90;;
67193;SDS011;54121;53.508;49.422;2022-08-25T10:05:23;8.20;;;5.43;;
67193;SDS011;54121;53.508;49.422;2022-08-25T10:07:57;10.18;;;5.00;;
67193;SDS011;54121;53.508;49.422;2022-08-25T10:10:32;9.45;;;5.20;;
67193;SDS011;54121;53.508;49.422;2022-08-25T10:13:14;9.25;;;5.72;;
67193;SDS011;54121;53.508;49.422;2022-08-25T10:16:02;9.13;;;5.43;;
67193;SDS011;54121;53.508;49.422;2022-08-25T10:18:36;7.18;;;5.38;;
67193;SDS011;54121;53.508;49.422;2022-08-25T10:23:48;11.23;;;5.13;;
67193;SDS011;54121;53.508;49.422;2022-08-25T10:26:29;7.07;;;4.90;;
67193;SDS011;54121;53.508;49.422;2022-08-25T10:29:09;8.85;;;5.50;;
67193;SDS011;54121;53.508;49.422;2022-08-25T10:38:14;10.00;;;5.03;;
67193;SDS011;54121;53.508;49.422;2022-08-25T10:41:20;7.57;;;5.28;;
67193;SDS011;54121;53.508;49.422;2022-08-25T10:44:33;12.68;;;5.38;;
67193;SDS011;54121;53.508;49.422;2022-08-25T11:04:27;12.20;;;4.80;;
67193;SDS011;54121;53.508;49.422;2022-08-25T11:07:11;11.65;;;5.40;;
67193;SDS011;54121;53.508;49.422;2022-08-25T11:09:52;8.65;;;4.80;;
67193;SDS011;54121;53.508;49.422;2022-08-25T11:12:30;7.63;;;4.45;;
67193;SDS011;54121;53.508;49.422;2022-08-25T11:15:13;8.27;;;4.53;;
67193;SDS011;54121;53.508;49.422;2022-08-25T11:23:53;6.65;;;4.75;;
67193;SDS011;54121;53.508;49.422;2022-08-25T11:26:41;8.07;;;4.65;;
67193;SDS011;54121;53.508;49.422;2022-08-25T11:29:22;6.28;;;5.18;;
67193;SDS011;54121;53.508;49.422;2022-08-25T11:32:00;7.50;;;4.88;;
67193;SDS011;54121;53.508;49.422;2022-08-25T11:34:34;6.03;;;4.70;;
67193;SDS011;54121;53.508;49.422;2022-08-25T11:37:11;10.13;;;5.20;;
67193;SDS011;54121;53.508;49.422;2022-08-25T11:45:51;13.07;;;5.03;;
67193;SDS011;54121;53.508;49.422;2022-08-25T11:51:11;8.07;;;4.80;;
67193;SDS011;54121;53.508;49.422;2022-08-25T11:56:54;7.18;;;4.88;;
67193;SDS011;54121;53.508;49.422;2022-08-25T12:02:39;9.95;;;5.07;;
67193;SDS011;54121;53.508;49.422;2022-08-25T12:08:01;7.45;;;4.07;;
67193;SDS011;54121;53.508;49.422;2022-08-25T12:11:00;6.05;;;3.92;;
67193;SDS011;54121;53.508;49.422;2022-08-25T12:13:40;8.07;;;4.18;;
67193;SDS011;54121;53.508;49.422;2022-08-25T12:16:37;6.32;;;4.22;;
67193;SDS011;54121;53.508;49.422;2022-08-25T12:27:23;11.50;;;4.93;;
67193;SDS011;54121;53.508;49.422;2022-08-25T12:38:32;4.85;;;4.03;;
67193;SDS011;54121;53.508;49.422;2022-08-25T12:41:20;7.82;;;4.57;;
67193;SDS011;54121;53.508;49.422;2022-08-25T12:44:08;8.05;;;3.85;;
67193;SDS011;54121;53.508;49.422;2022-08-25T12:47:06;8.18;;;4.22;;
67193;SDS011;54121;53.508;49.422;2022-08-25T12:50:36;12.85;;;4.32;;
67193;SDS011;54121;53.508;49.422;2022-08-25T12:56:15;11.13;;;3.53;;
67193;SDS011;54121;53.508;49.422;2022-08-25T13:01:37;11.10;;;4.20;;
67193;SDS011;54121;53.508;49.422;2022-08-25T13:07:32;8.63;;;3.97;;
67193;SDS011;54121;53.508;49.422;2022-08-25T13:10:31;11.20;;;3.90;;
67193;SDS011;54121;53.508;49.422;2022-08-25T13:13:34;11.32;;;4.30;;
67193;SDS011;54121;53.508;49.422;2022-08-25T13:16:15;9.38;;;4.38;;
67193;SDS011;54121;53.508;49.422;2022-08-25T13:18:49;15.02;;;5.30;;
67193;SDS011;54121;53.508;49.422;2022-08-25T13:24:11;11.88;;;5.07;;
67193;SDS011;54121;53.508;49.422;2022-08-25T13:29:48;6.05;;;4.28;;
67193;SDS011;54121;53.508;49.422;2022-08-25T13:32:26;6.53;;;4.03;;
67193;SDS011;54121;53.508;49.422;2022-08-25T13:35:21;12.60;;;5.40;;
67193;SDS011;54121;53.508;49.422;2022-08-25T13:38:11;13.02;;;4.60;;
67193;SDS011;54121;53.508;49.422;2022-08-25T13:40:46;8.63;;;4.38;;
67193;SDS011;54121;53.508;49.422;2022-08-25T13:43:18;7.35;;;4.40;;
67193;SDS011;54121;53.508;49.422;2022-08-25T13:45:50;7.00;;;3.83;;
67193;SDS011;54121;53.508;49.422;2022-08-25T13:48:33;12.95;;;4.95;;
67193;SDS011;54121;53.508;49.422;2022-08-25T13:56:32;8.10;;;4.50;;
67193;SDS011;54121;53.508;49.422;2022-08-25T13:59:17;11.60;;;4.97;;
67193;SDS011;54121;53.508;49.422;2022-08-25T14:01:54;11.88;;;4.78;;
67193;SDS011;54121;53.508;49.422;2022-08-25T14:04:30;12.13;;;5.32;;
67193;SDS011;54121;53.508;49.422;2022-08-25T14:07:24;11.02;;;4.82;;
67193;SDS011;54121;53.508;49.422;2022-08-25T14:10:08;11.48;;;4.72;;
67193;SDS011;54121;53.508;49.422;2022-08-25T14:13:07;9.73;;;4.63;;
67193;SDS011;54121;53.508;49.422;2022-08-25T14:15:39;12.35;;;4.70;;
67193;SDS011;54121;53.508;49.422;2022-08-25T14:18:14;11.10;;;5.22;;
67193;SDS011;54121;53.508;49.422;2022-08-25T14:20:51;9.10;;;5.63;;
67193;SDS011;54121;53.508;49.422;2022-08-25T14:23:24;8.05;;;5.18;;
67193;SDS011;54121;53.508;49.422;2022-08-25T14:25:58;12.02;;;5.78;;
67193;SDS011;54121;53.508;49.422;2022-08-25T14:28:30;10.05;;;5.22;;
67193;SDS011;54121;53.508;49.422;2022-08-25T14:31:06;7.50;;;4.70;;
67193;SDS011;54121;53.508;49.422;2022-08-25T14:36:21;9.32;;;5.03;;
67193;SDS011;54121;53.508;49.422;2022-08-25T14:38:53;11.68;;;5.20;;
67193;SDS011;54121;53.508;49.422;2022-08-25T14:41:25;12.32;;;5.03;;
67193;SDS011;54121;53.508;49.422;2022-08-25T14:43:57;12.60;;;5.10;;
67193;SDS011;54121;53.508;49.422;2022-08-25T14:46:31;8.80;;;4.80;;
67193;SDS011;54121;53.508;49.422;2022-08-25T14:49:10;11.38;;;4.95;;
67193;SDS011;54121;53.508;49.422;2022-08-25T14:51:46;12.48;;;5.15;;
67193;SDS011;54121;53.508;49.422;2022-08-25T14:54:19;14.98;;;5.05;;
67193;SDS011;54121;53.508;49.422;2022-08-25T14:56:54;9.43;;;5.30;;
67193;SDS011;54121;53.508;49.422;2022-08-25T14:59:26;13.57;;;5.55;;
67193;SDS011;54121;53.508;49.422;2022-08-25T15:01:58;15.90;;;5.40;;
67193;SDS011;54121;53.508;49.422;2022-08-25T15:04:30;9.52;;;5.25;;
67193;SDS011;54121;53.508;49.422;2022-08-25T15:07:02;7.57;;;5.10;;
67193;SDS011;54121;53.508;49.422;2022-08-25T15:09:54;19.10;;;5.60;;
67193;SDS011;54121;53.508;49.422;2022-08-25T15:12:25;8.93;;;5.20;;
67193;SDS011;54121;53.508;49.422;2022-08-25T15:14:57;8.85;;;5.50;;
67193;SDS011;54121;53.508;49.422;2022-08-25T15:17:29;10.20;;;5.43;;
67193;SDS011;54121;53.508;49.422;2022-08-25T15:20:01;21.45;;;6.00;;
67193;SDS011;54121;53.508;49.422;2022-08-25T15:22:33;16.60;;;5.53;;
67193;SDS011;54121;53.508;49.422;2022-08-25T15:25:05;14.90;;;6.15;;
67193;SDS011;54121;53.508;49.422;2022-08-25T15:27:37;8.80;;;5.50;;
67193;SDS011;54121;53.508;49.422;2022-08-25T15:30:09;9.10;;;5.68;;
67193;SDS011;54121;53.508;49.422;2022-08-25T15:32:42;11.00;;;5.95;;
67193;SDS011;54121;53.508;49.422;2022-08-25T15:35:14;11.93;;;5.72;;
67193;SDS011;54121;53.508;49.422;2022-08-25T15:37:46;18.52;;;6.45;;
67193;SDS011;54121;53.508;49.422;2022-08-25T15:40:18;17.60;;;6.38;;
67193;SDS011;54121;53.508;49.422;2022-08-25T15:42:50;13.60;;;6.25;;
67193;SDS011;54121;53.508;49.422;2022-08-25T15:45:22;11.93;;;6.35;;
67193;SDS011;54121;53.508;49.422;2022-08-25T15:47:54;44.88;;;7.82;;
67193;SDS011;54121;53.508;49.422;2022-08-25T15:50:26;22.90;;;7.45;;
67193;SDS011;54121;53.508;49.422;2022-08-25T15:52:58;19.92;;;8.10;;
67193;SDS011;54121;53.508;49.422;2022-08-25T15:55:30;17.70;;;7.32;;
67193;SDS011;54121;53.508;49.422;2022-08-25T15:58:01;23.25;;;7.43;;
67193;SDS011;54121;53.508;49.422;2022-08-25T16:00:33;29.23;;;8.05;;
67193;SDS011;54121;53.508;49.422;2022-08-25T16:03:05;19.98;;;7.45;;
67193;SDS011;54121;53.508;49.422;2022-08-25T16:05:38;19.15;;;8.23;;
67193;SDS011;54121;53.508;49.422;2022-08-25T16:08:12;18.77;;;7.70;;
67193;SDS011;54121;53.508;49.422;2022-08-25T16:10:45;12.77;;;7.25;;
67193;SDS011;54121;53.508;49.422;2022-08-25T16:13:17;18.20;;;7.78;;
67193;SDS011;54121;53.508;49.422;2022-08-25T16:15:49;22.95;;;8.35;;
67193;SDS011;54121;53.508;49.422;2022-08-25T16:18:21;22.70;;;8.27;;
67193;SDS011;54121;53.508;49.422;2022-08-25T16:20:54;23.58;;;8.50;;
67193;SDS011;54121;53.508;49.422;2022-08-25T16:23:26;23.77;;;7.65;;
67193;SDS011;54121;53.508;49.422;2022-08-25T16:25:57;16.63;;;8.02;;
67193;SDS011;54121;53.508;49.422;2022-08-25T16:28:29;13.38;;;8.32;;
67193;SDS011;54121;53.508;49.422;2022-08-25T16:31:01;20.17;;;8.52;;
67193;SDS011;54121;53.508;49.422;2022-08-25T16:33:33;25.75;;;8.63;;
67193;SDS011;54121;53.508;49.422;2022-08-25T16:36:18;21.67;;;8.27;;
67193;SDS011;54121;53.508;49.422;2022-08-25T16:38:51;33.92;;;10.32;;
67193;SDS011;54121;53.508;49.422;2022-08-25T16:41:24;31.23;;;10.48;;
67193;SDS011;54121;53.508;49.422;2022-08-25T16:44:04;35.53;;;10.20;;
67193;SDS011;54121;53.508;49.422;2022-08-25T16:46:38;42.95;;;11.95;;
67193;SDS011;54121;53.508;49.422;2022-08-25T16:49:12;32.58;;;11.48;;
67193;SDS011;54121;53.508;49.422;2022-08-25T16:51:45;30.08;;;9.43;;
67193;SDS011;54121;53.508;49.422;2022-08-25T16:54:16;27.02;;;9.70;;
67193;SDS011;54121;53.508;49.422;2022-08-25T16:57:06;22.38;;;9.00;;
67193;SDS011;54121;53.508;49.422;2022-08-25T16:59:38;25.70;;;9.38;;
67193;SDS011;54121;53.508;49.422;2022-08-25T17:02:12;21.77;;;8.93;;
67193;SDS011;54121;53.508;49.422;2022-08-25T17:04:44;26.38;;;9.77;;
67193;SDS011;54121;53.508;49.422;2022-08-25T17:07:15;29.40;;;9.70;;
67193;SDS011;54121;53.508;49.422;2022-08-25T17:09:47;27.52;;;10.45;;
67193;SDS011;54121;53.508;49.422;2022-08-25T17:12:19;34.70;;;11.18;;